Flight Track Log - Related Links

Times and Time Zones

All times are in EDT time to prevent confusion due to time zone crossing. See the N81ER flight status page for this flight to view local times or setup timezone preferences in your user account.

Time Position Orientation Groundspeed Altitude Reporting Facility
EDT Latitude Longitude Course Direction KTS MPH feet Rate Location/Type
Wed 08:11:47 PM 40.2030 -86.2120 10° North 313 360 17,200  Level FlightAware ADS-B
Wed 08:12:17 PM 40.2460 -86.1930 19° North 311 358 18,900 2,333 Climbing FlightAware ADS-B
Wed 08:13:17 PM 40.3300 -86.1760 North 311 358 20,700 982 Climbing FlightAware ADS-B
Wed 08:14:07 PM 40.3900 -86.1650 North 311 358 20,700 200 Level FlightAware ADS-B
Wed 08:14:47 PM 40.4780 -86.1450 10° North 357 411 21,000 225 Climbing FlightAware ADS-B
Wed 08:15:27 PM 40.5450 -86.1320 North 357 411 21,000  Level FlightAware ADS-B
Wed 08:16:12 PM 40.6200 -86.1170 North 356 410 21,000  Level FlightAware ADS-B
Wed 08:16:52 PM 40.6820 -86.1050 North 355 409 21,000  Level FlightAware ADS-B
Wed 08:17:37 PM 40.7570 -86.0890 North 354 407 21,000  Level FlightAware ADS-B
Wed 08:18:17 PM 40.8200 -86.0770 North 355 409 21,000  Level FlightAware ADS-B
Wed 08:19:02 PM 40.8950 -86.0550 13° North 359 413 21,000  Level FlightAware ADS-B
Wed 08:19:42 PM 40.9370 -85.9930 48° Northeast 370 426 21,000  Level FlightAware ADS-B
Wed 08:20:22 PM 40.9700 -85.9100 62° Northeast 370 426 21,000  Level FlightAware ADS-B
Wed 08:21:02 PM 41.0010 -85.8300 63° Northeast 369 425 21,000  Level FlightAware ADS-B
Wed 08:21:47 PM 41.0350 -85.7400 63° Northeast 371 427 21,000  Level FlightAware ADS-B
Wed 08:22:32 PM 41.0710 -85.6480 63° Northeast 372 428 21,000  Level FlightAware ADS-B
Wed 08:23:07 PM 41.0990 -85.5740 63° Northeast 372 428 21,000  Level FlightAware ADS-B
Wed 08:23:52 PM 41.1350 -85.4810 63° Northeast 372 428 21,000  Level FlightAware ADS-B
Wed 08:24:37 PM 41.1690 -85.3910 63° Northeast 368 423 21,000  Level FlightAware ADS-B
Wed 08:25:12 PM 41.1930 -85.3270 63° Northeast 369 425 21,000  Level FlightAware ADS-B
Wed 08:26:02 PM 41.2260 -85.2410 63° Northeast 369 425 21,000  Level FlightAware ADS-B
Wed 08:26:37 PM 41.2590 -85.1520 64° Northeast 372 428 21,000  Level FlightAware ADS-B
Wed 08:27:22 PM 41.3030 -85.0700 54° Northeast 357 411 21,000  Level FlightAware ADS-B
Wed 08:27:37 PM 41.3260 -85.0550 26° Northeast 353 406 21,000  Level FlightAware ADS-B
Wed 08:28:17 PM 41.3880 -85.0300 17° North 351 404 21,000 -141 Level FlightAware ADS-B
Wed 08:29:02 PM 41.4570 -85.0030 16° North 356 410 20,800 -424 Descending FlightAware ADS-B
Wed 08:29:42 PM 41.5180 -84.9800 16° North 357 411 20,400 -300 Descending FlightAware ADS-B
Wed 08:30:22 PM 41.5720 -84.9590 16° North 357 411 20,400  Level FlightAware ADS-B
Wed 08:31:02 PM 41.6260 -84.9380 16° North 357 411 20,400  Level FlightAware ADS-B
Wed 08:31:42 PM 41.6800 -84.9180 15° North 357 411 20,400  Level FlightAware ADS-B
Wed 08:32:32 PM 41.7480 -84.8920 16° North 357 411 20,400  Level FlightAware ADS-B
Wed 08:33:12 PM 41.8020 -84.8710 16° North 357 411 20,400 -4,165 Level FlightAware ADS-B
Wed 08:33:57 PM 41.7940 -84.6950 93° East 317 365 14,500 -5,025 Descending FlightAware ADS-B
Wed 08:34:32 PM 41.8140 -84.6330 67° East 311 358 13,700 -600 Descending FlightAware ADS-B
Wed 08:35:17 PM 41.8380 -84.5610 66° East 311 358 13,700  Level FlightAware ADS-B
Wed 08:35:57 PM 41.8580 -84.5010 66° East 311 358 13,700 -1,608 Level FlightAware ADS-B
Wed 08:36:54 PM 41.8922 -84.3925 66° East 314 361 11,100 -1,615 Descending Chicago Center
Wed 08:37:41 PM 41.9206 -84.2978 68° East 305 351 10,900 -190 Descending Cleveland Center
Wed 08:37:57 PM 41.9272 -84.2897 42° Northeast 305 351 10,900 -857 Level Cleveland Center
Wed 08:38:30 PM 41.9458 -84.2239 69° East 291 335 10,200 -1,273 Descending Cleveland Center

Login

Don't have an account? Register now (free) for customized features, flight alerts, and more!